Time;durP1;ratioP1;P1;durP2;ratioP2;P2;SDS_P1;SDS_P2;PMS_P1;PMS_P2;Temp;Humidity;BMP_temperature;BMP_pressure;BME280_temperature;BME280_humidity;BME280_pressure;Samples;Min_cycle;Max_cycle;Signal;HPM_P1;HPM_P2
2023/01/14 00:00:17;;;;;;;9.50;2.10;;;8.20;99.90;;;;;;5082283;28;20035;-38
2023/01/14 00:02:42;;;;;;;6.47;1.60;;;8.20;99.90;;;;;;5083241;28;20028;-38
2023/01/14 00:05:08;;;;;;;5.60;1.55;;;8.20;99.90;;;;;;5081868;28;20051;-37
2023/01/14 00:07:34;;;;;;;3.70;1.42;;;8.10;99.90;;;;;;5083079;28;20622;-40
2023/01/14 00:10:00;;;;;;;5.00;1.42;;;8.20;99.90;;;;;;5082348;28;20028;-39
2023/01/14 00:12:26;;;;;;;6.57;1.58;;;8.20;99.90;;;;;;5082547;28;20024;-38
2023/01/14 00:14:51;;;;;;;6.15;1.40;;;8.10;99.90;;;;;;5082957;28;20356;-37
2023/01/14 00:17:17;;;;;;;11.10;2.03;;;8.10;99.90;;;;;;5081846;28;20460;-38
2023/01/14 00:19:43;;;;;;;8.55;1.80;;;8.10;99.90;;;;;;5083068;28;20055;-37
2023/01/14 00:22:08;;;;;;;7.05;1.77;;;8.10;99.90;;;;;;5082136;28;20226;-39
2023/01/14 00:24:34;;;;;;;10.93;2.15;;;8.00;99.90;;;;;;5081809;28;20050;-35
2023/01/14 00:27:02;;;;;;;6.47;1.50;;;8.00;99.90;;;;;;5082010;28;20043;-36
2023/01/14 00:29:33;;;;;;;8.80;1.77;;;7.90;99.90;;;;;;5082781;28;20349;-38
2023/01/14 00:32:00;;;;;;;7.80;1.98;;;7.80;99.90;;;;;;5081865;28;20043;-38
2023/01/14 00:34:27;;;;;;;5.40;1.88;;;7.80;99.90;;;;;;5082907;28;20039;-33
2023/01/14 00:36:53;;;;;;;8.27;2.00;;;7.70;99.90;;;;;;5081322;28;20029;-35
2023/01/14 00:39:22;;;;;;;8.93;1.80;;;7.60;99.90;;;;;;5082049;28;20471;-38
2023/01/14 00:41:48;;;;;;;10.63;2.10;;;7.60;99.90;;;;;;5082758;28;20035;-39
2023/01/14 00:44:14;;;;;;;6.38;1.70;;;7.60;99.90;;;;;;5082673;28;20059;-38
2023/01/14 00:46:41;;;;;;;9.52;2.28;;;7.50;99.90;;;;;;5082238;28;20089;-38
2023/01/14 00:49:08;;;;;;;6.07;1.80;;;7.50;99.90;;;;;;5082329;28;20024;-39
2023/01/14 00:51:34;;;;;;;5.55;1.83;;;7.50;99.90;;;;;;5082113;28;20036;-37
2023/01/14 00:54:01;;;;;;;7.20;1.70;;;7.50;99.90;;;;;;5081103;28;20016;-39
2023/01/14 00:56:27;;;;;;;9.80;2.00;;;7.50;99.90;;;;;;5082820;28;20035;-35
2023/01/14 00:58:53;;;;;;;8.57;1.88;;;7.60;99.90;;;;;;5082340;28;20032;-38
2023/01/14 01:01:20;;;;;;;6.60;1.73;;;7.60;99.90;;;;;;5081131;28;20036;-38
2023/01/14 01:03:48;;;;;;;11.55;2.28;;;7.60;99.90;;;;;;5083333;28;20032;-37
2023/01/14 01:06:15;;;;;;;7.38;1.67;;;7.70;99.90;;;;;;5081499;28;20032;-35
2023/01/14 01:08:41;;;;;;;9.63;2.15;;;7.70;99.90;;;;;;5082065;28;20035;-37
2023/01/14 01:11:07;;;;;;;11.27;2.15;;;7.80;99.90;;;;;;5081545;28;20032;-34
2023/01/14 01:13:34;;;;;;;9.13;2.42;;;7.80;99.90;;;;;;5081771;28;20020;-38
2023/01/14 01:16:02;;;;;;;10.65;2.55;;;7.80;99.90;;;;;;5081908;28;20066;-36
2023/01/14 01:18:28;;;;;;;14.05;2.80;;;7.80;99.90;;;;;;5079247;28;20028;-39
2023/01/14 01:21:11;;;;;;;10.80;2.28;;;7.80;99.90;;;;;;5081004;28;20522;-38
2023/01/14 01:23:40;;;;;;;8.30;1.52;;;7.70;99.90;;;;;;5078231;28;20043;-34
2023/01/14 01:26:10;;;;;;;7.88;1.80;;;7.70;99.90;;;;;;5082333;28;20020;-38
2023/01/14 01:28:35;;;;;;;12.05;2.67;;;7.70;99.90;;;;;;5081619;28;20062;-38
2023/01/14 01:31:03;;;;;;;11.77;2.28;;;7.70;99.90;;;;;;5081207;28;20049;-38
2023/01/14 01:33:30;;;;;;;10.30;2.55;;;7.70;99.90;;;;;;5081872;28;20098;-37
2023/01/14 01:36:17;;;;;;;13.35;2.88;;;7.70;99.90;;;;;;5081717;28;20546;-37
2023/01/14 01:38:43;;;;;;;10.57;2.42;;;7.60;99.90;;;;;;5083111;28;20027;-34
2023/01/14 01:41:18;;;;;;;10.73;2.40;;;7.60;99.90;;;;;;5085172;28;20059;-38
2023/01/14 01:44:03;;;;;;;9.38;2.10;;;7.50;99.90;;;;;;5085184;28;20364;-38
2023/01/14 01:46:31;;;;;;;9.98;2.75;;;7.50;99.90;;;;;;5086285;28;20035;-36
2023/01/14 01:49:22;;;;;;;12.20;2.58;;;7.40;99.90;;;;;;5084558;28;20023;-36
2023/01/14 01:51:57;;;;;;;9.95;2.00;;;7.40;99.90;;;;;;5085868;28;20028;-38
2023/01/14 01:54:28;;;;;;;14.10;2.65;;;7.30;99.90;;;;;;5085642;28;20020;-37
2023/01/14 01:56:54;;;;;;;12.68;2.47;;;7.30;99.90;;;;;;5085332;28;20372;-38
2023/01/14 01:59:24;;;;;;;11.18;2.35;;;7.30;99.90;;;;;;5085490;28;20081;-36
2023/01/14 02:01:52;;;;;;;8.55;2.50;;;7.30;99.90;;;;;;5085569;28;20134;-39
2023/01/14 02:04:18;;;;;;;11.48;2.15;;;7.20;99.90;;;;;;5084286;28;20058;-37
2023/01/14 02:06:44;;;;;;;8.50;1.90;;;7.20;99.90;;;;;;5085505;28;20032;-36
2023/01/14 02:09:10;;;;;;;10.48;2.22;;;7.20;99.90;;;;;;5084434;28;20044;-38
2023/01/14 02:11:57;;;;;;;8.55;2.55;;;7.10;99.90;;;;;;5084737;28;20028;-38
2023/01/14 02:14:38;;;;;;;9.25;1.98;;;7.10;99.90;;;;;;5085339;28;20050;-34
2023/01/14 02:17:12;;;;;;;7.35;2.50;;;7.10;99.90;;;;;;5084171;28;20024;-39
2023/01/14 02:20:03;;;;;;;9.68;2.03;;;7.00;99.90;;;;;;5085343;28;20169;-37
2023/01/14 02:22:59;;;;;;;10.07;2.10;;;7.00;99.90;;;;;;5065277;28;20117;-37
2023/01/14 02:25:36;;;;;;;10.10;2.67;;;7.00;99.90;;;;;;5084353;28;20036;-38
2023/01/14 02:28:18;;;;;;;9.35;2.00;;;7.00;99.90;;;;;;5084726;28;20063;-39
2023/01/14 02:30:57;;;;;;;9.68;2.35;;;7.00;99.90;;;;;;5084727;28;20027;-37
2023/01/14 02:33:48;;;;;;;11.10;2.03;;;7.00;99.90;;;;;;5085334;28;20052;-39
2023/01/14 02:36:51;;;;;;;7.45;1.90;;;6.90;99.90;;;;;;5082225;28;20051;-37
2023/01/14 02:39:36;;;;;;;12.27;2.63;;;6.90;99.90;;;;;;5083274;28;20032;-36
2023/01/14 02:45:28;;;;;;;9.25;2.30;;;6.80;99.90;;;;;;5083240;28;20117;-37
2023/01/14 02:47:55;;;;;;;14.55;3.85;;;6.80;99.90;;;;;;5085101;28;20226;-36
2023/01/14 02:50:21;;;;;;;6.25;2.60;;;6.70;99.90;;;;;;5083228;28;20061;-37
2023/01/14 02:52:47;;;;;;;9.85;2.65;;;6.70;99.90;;;;;;5084029;28;20063;-38
2023/01/14 02:55:34;;;;;;;11.82;2.60;;;6.70;99.90;;;;;;5083997;28;20150;-39
2023/01/14 02:58:42;;;;;;;8.23;2.10;;;6.70;99.90;;;;;;5084528;28;20055;-38
2023/01/14 03:01:14;;;;;;;12.20;2.38;;;6.70;99.90;;;;;;5082502;28;20036;-37
2023/01/14 03:04:05;;;;;;;12.70;2.72;;;6.60;99.90;;;;;;5083066;28;20031;-31
2023/01/14 03:06:53;;;;;;;11.85;2.83;;;6.60;99.90;;;;;;5072460;28;20036;-36
2023/01/14 03:09:33;;;;;;;8.50;2.00;;;6.50;99.90;;;;;;5083753;28;20027;-37
2023/01/14 03:12:13;;;;;;;7.85;2.53;;;6.50;99.90;;;;;;5083460;28;20016;-35
2023/01/14 03:15:06;;;;;;;8.55;2.28;;;6.50;99.90;;;;;;5083790;28;20418;-40
2023/01/14 03:17:39;;;;;;;6.53;2.00;;;6.50;99.90;;;;;;5073331;28;20044;-36
2023/01/14 03:20:21;;;;;;;9.23;2.28;;;6.50;99.90;;;;;;5082840;28;20051;-35
2023/01/14 03:22:49;;;;;;;13.67;2.63;;;6.50;99.90;;;;;;5082022;28;20032;-32
2023/01/14 03:25:17;;;;;;;15.63;2.50;;;6.50;99.90;;;;;;5083776;28;20114;-37
2023/01/14 03:27:46;;;;;;;16.08;2.72;;;6.50;99.90;;;;;;5082734;28;20027;-35
2023/01/14 03:30:26;;;;;;;8.60;2.25;;;6.50;99.90;;;;;;5083073;28;20280;-37
2023/01/14 03:33:02;;;;;;;14.13;2.88;;;6.40;99.90;;;;;;5083591;28;20059;-35
2023/01/14 03:35:33;;;;;;;13.68;3.05;;;6.40;99.90;;;;;;5083445;28;20073;-36
2023/01/14 03:38:12;;;;;;;12.75;2.83;;;6.40;99.90;;;;;;5082272;28;20406;-35
2023/01/14 03:40:39;;;;;;;11.85;2.63;;;6.40;99.90;;;;;;5084283;28;20047;-35
2023/01/14 03:43:23;;;;;;;12.68;2.90;;;6.40;99.90;;;;;;5082962;28;20026;-39
2023/01/14 03:45:49;;;;;;;13.35;3.22;;;6.40;99.90;;;;;;5083569;28;20395;-36
2023/01/14 03:48:16;;;;;;;11.30;2.60;;;6.40;99.90;;;;;;5082447;28;20031;-38
2023/01/14 03:51:29;;;;;;;13.10;2.80;;;6.40;99.90;;;;;;5083385;28;20456;-33
2023/01/14 03:54:01;;;;;;;;;;;6.40;99.90;;;;;;5066580;28;20051;-37
2023/01/14 03:56:43;;;;;;;9.48;2.15;;;6.40;99.90;;;;;;5082887;28;19908;-33
2023/01/14 03:59:16;;;;;;;11.27;2.22;;;6.40;99.90;;;;;;5082766;28;20031;-37
2023/01/14 04:01:48;;;;;;;14.68;2.83;;;6.40;99.90;;;;;;5082588;28;20032;-37
2023/01/14 04:04:15;;;;;;;10.25;2.50;;;6.40;99.90;;;;;;5081340;28;20024;-36
2023/01/14 04:06:41;;;;;;;8.05;2.03;;;6.40;99.90;;;;;;5083175;28;20034;-37
2023/01/14 04:09:08;;;;;;;12.73;3.60;;;6.40;99.90;;;;;;5082037;28;20028;-38
2023/01/14 04:11:35;;;;;;;17.10;3.65;;;6.40;99.90;;;;;;5082617;28;20032;-40
2023/01/14 04:16:45;;;;;;;14.38;2.65;;;6.50;99.90;;;;;;5082661;28;20043;-38
2023/01/14 04:19:10;;;;;;;9.77;2.70;;;6.50;99.90;;;;;;5082020;28;20028;-37
2023/01/14 04:21:36;;;;;;;12.65;3.65;;;6.50;99.90;;;;;;5083059;28;20035;-37
2023/01/14 04:24:02;;;;;;;15.00;2.70;;;6.50;99.90;;;;;;5081857;28;20130;-37
2023/01/14 04:26:28;;;;;;;16.73;2.85;;;6.60;99.90;;;;;;5082984;28;20026;-38
2023/01/14 04:28:54;;;;;;;12.05;3.25;;;6.60;99.90;;;;;;5082197;28;20016;-38
2023/01/14 04:31:20;;;;;;;12.85;3.58;;;6.60;99.90;;;;;;5081426;28;20020;-39
2023/01/14 04:33:46;;;;;;;15.02;3.53;;;6.70;99.90;;;;;;5082345;28;20091;-37
2023/01/14 04:36:11;;;;;;;13.35;2.70;;;6.70;99.90;;;;;;5082100;28;20039;-36
2023/01/14 04:38:37;;;;;;;17.75;3.60;;;6.70;99.90;;;;;;5082118;28;20090;-35
2023/01/14 04:41:03;;;;;;;16.40;2.83;;;6.70;99.90;;;;;;5081469;28;20035;-38
2023/01/14 04:43:28;;;;;;;16.77;3.30;;;6.80;99.90;;;;;;5082699;28;20032;-36
2023/01/14 04:45:57;;;;;;;17.02;3.08;;;6.80;99.90;;;;;;5081857;28;20031;-39
2023/01/14 04:48:24;;;;;;;12.35;2.97;;;6.80;99.90;;;;;;5082020;28;20399;-39
2023/01/14 04:50:51;;;;;;;13.73;3.40;;;6.90;99.90;;;;;;5083012;28;20101;-35
2023/01/14 04:53:22;;;;;;;16.95;2.95;;;7.00;99.90;;;;;;5081403;28;20038;-35
2023/01/14 04:55:51;;;;;;;15.30;3.10;;;7.00;99.90;;;;;;5082563;28;20115;-38
2023/01/14 04:58:18;;;;;;;17.10;3.17;;;7.00;99.90;;;;;;5081819;28;20043;-36
2023/01/14 05:00:44;;;;;;;16.45;3.35;;;7.00;99.90;;;;;;5081770;28;20425;-38
2023/01/14 05:03:12;;;;;;;16.85;3.17;;;7.00;99.90;;;;;;5081744;28;20028;-36
2023/01/14 05:05:38;;;;;;;20.60;3.13;;;7.00;99.90;;;;;;5081990;28;20473;-37
2023/01/14 05:08:05;;;;;;;14.02;2.80;;;7.00;99.90;;;;;;5081894;28;20031;-37
2023/01/14 05:10:32;;;;;;;13.13;2.83;;;7.00;99.90;;;;;;5082567;28;20093;-34
2023/01/14 05:12:58;;;;;;;17.17;3.40;;;7.00;99.90;;;;;;5082126;28;20034;-38
2023/01/14 05:15:35;;;;;;;13.93;2.83;;;7.00;99.90;;;;;;5085633;28;20047;-36
2023/01/14 05:18:01;;;;;;;12.18;2.53;;;7.00;99.90;;;;;;5085489;28;20028;-36
2023/01/14 05:20:27;;;;;;;20.08;2.97;;;7.00;99.90;;;;;;5085301;28;20040;-36
2023/01/14 05:22:59;;;;;;;12.32;2.90;;;6.90;99.90;;;;;;5086160;28;20026;-39
2023/01/14 05:25:24;;;;;;;15.67;3.53;;;7.00;99.90;;;;;;5085899;28;20028;-38
2023/01/14 05:27:50;;;;;;;11.80;2.40;;;6.90;99.90;;;;;;5085870;28;20035;-38
2023/01/14 05:30:15;;;;;;;15.73;3.25;;;7.00;99.90;;;;;;5084704;28;20032;-38
2023/01/14 05:32:41;;;;;;;13.77;2.70;;;7.00;99.90;;;;;;5086116;28;20131;-38
2023/01/14 05:35:10;;;;;;;15.75;2.90;;;7.00;99.90;;;;;;5085013;28;20771;-38
2023/01/14 05:37:39;;;;;;;12.85;2.90;;;6.90;99.90;;;;;;5086332;28;20428;-39
2023/01/14 05:40:05;;;;;;;13.98;3.13;;;7.00;99.90;;;;;;5084843;28;20036;-38
2023/01/14 05:48:00;;;;;;;16.85;2.65;;;7.00;99.90;;;;;;5074916;28;20039;-36
2023/01/14 05:50:25;;;;;;;17.88;2.95;;;7.00;99.90;;;;;;5086097;28;20027;-36
2023/01/14 05:52:51;;;;;;;15.70;2.85;;;6.90;99.90;;;;;;5085546;28;20787;-37
2023/01/14 05:55:16;;;;;;;12.90;2.50;;;7.00;99.90;;;;;;5083896;28;20032;-38
2023/01/14 05:57:42;;;;;;;13.30;2.70;;;7.00;99.90;;;;;;5085503;28;20049;-38
2023/01/14 06:06:20;;;;;;;16.48;2.50;;;7.00;99.90;;;;;;5085313;28;20868;-36
2023/01/14 06:08:39;;;;;;;15.80;2.53;;;7.00;99.90;;;;;;5062069;28;20093;-38
2023/01/14 06:11:04;;;;;;;14.85;2.83;;;7.00;99.90;;;;;;5078861;28;20469;-39
2023/01/14 06:13:30;;;;;;;15.85;2.60;;;7.00;99.90;;;;;;5084943;28;20536;-36
2023/01/14 06:15:55;;;;;;;10.32;2.22;;;7.00;99.90;;;;;;5084779;28;20369;-38
2023/01/14 06:18:24;;;;;;;13.43;2.25;;;7.00;99.90;;;;;;5084312;28;20325;-37
2023/01/14 06:20:51;;;;;;;10.93;2.67;;;7.00;99.90;;;;;;5085589;28;20843;-37
2023/01/14 06:23:18;;;;;;;15.55;3.00;;;7.00;99.90;;;;;;5084142;28;20043;-37
2023/01/14 06:25:46;;;;;;;15.50;2.95;;;7.00;99.90;;;;;;5084045;28;20028;-37
2023/01/14 06:28:12;;;;;;;15.60;2.90;;;7.00;99.90;;;;;;5083869;28;20495;-38
2023/01/14 06:30:38;;;;;;;14.82;2.80;;;7.10;99.90;;;;;;5084756;28;20127;-37
2023/01/14 06:33:03;;;;;;;14.40;2.42;;;7.10;99.90;;;;;;5084414;28;20050;-37
2023/01/14 06:35:29;;;;;;;8.65;2.47;;;7.10;99.90;;;;;;5084978;28;20054;-35
2023/01/14 06:37:54;;;;;;;8.93;1.98;;;7.10;99.90;;;;;;5084607;28;20028;-34
2023/01/14 06:40:23;;;;;;;10.40;2.20;;;7.10;99.90;;;;;;5084608;28;20036;-36
2023/01/14 06:42:53;;;;;;;11.15;2.25;;;7.20;99.90;;;;;;5085132;28;20027;-37
2023/01/14 06:45:18;;;;;;;13.00;2.67;;;7.20;99.90;;;;;;5084086;28;20028;-38
2023/01/14 06:47:44;;;;;;;13.90;2.50;;;7.20;99.90;;;;;;5084956;28;20054;-38
2023/01/14 06:50:10;;;;;;;9.32;2.47;;;7.20;99.90;;;;;;5083613;28;20057;-38
2023/01/14 06:52:35;;;;;;;12.80;2.67;;;7.30;99.90;;;;;;5084526;28;20024;-38
2023/01/14 06:55:01;;;;;;;13.57;2.70;;;7.30;99.90;;;;;;5084151;28;20028;-38
2023/01/14 06:57:26;;;;;;;16.20;2.67;;;7.30;99.90;;;;;;5084758;28;20024;-38
2023/01/14 06:59:53;;;;;;;10.88;2.28;;;7.30;99.90;;;;;;5084101;28;20486;-36
2023/01/14 07:02:21;;;;;;;16.13;2.80;;;7.30;99.90;;;;;;5083852;28;20036;-36
2023/01/14 07:04:46;;;;;;;14.27;3.05;;;7.40;99.90;;;;;;5084384;28;20012;-39
2023/01/14 07:07:12;;;;;;;14.43;2.15;;;7.40;99.90;;;;;;5083363;28;20824;-37
2023/01/14 07:09:37;;;;;;;9.82;2.60;;;7.40;99.90;;;;;;5083784;28;20504;-34
2023/01/14 07:12:03;;;;;;;16.27;3.35;;;7.40;99.90;;;;;;5083460;28;20843;-38
2023/01/14 07:14:29;;;;;;;14.63;2.63;;;7.40;99.90;;;;;;5083864;28;20020;-37
2023/01/14 07:16:54;;;;;;;11.65;2.40;;;7.40;99.90;;;;;;5083788;28;20028;-38
2023/01/14 07:19:20;;;;;;;8.55;2.03;;;7.40;99.90;;;;;;5082240;28;20028;-38
2023/01/14 07:21:46;;;;;;;12.02;2.67;;;7.40;99.90;;;;;;5083844;28;20086;-37
2023/01/14 07:24:12;;;;;;;13.23;2.70;;;7.40;99.90;;;;;;5082893;28;20016;-35
2023/01/14 07:26:38;;;;;;;12.93;2.50;;;7.40;99.90;;;;;;5083156;28;20036;-38
2023/01/14 07:29:03;;;;;;;14.88;2.88;;;7.40;99.90;;;;;;5083356;28;20025;-37
2023/01/14 07:31:29;;;;;;;18.88;3.20;;;7.40;99.90;;;;;;5083796;28;20024;-36
2023/01/14 07:33:55;;;;;;;16.00;2.53;;;7.30;99.90;;;;;;5083109;28;20056;-37
2023/01/14 07:36:20;;;;;;;16.52;3.30;;;7.30;99.90;;;;;;5082610;28;20032;-38
2023/01/14 07:38:46;;;;;;;11.65;2.60;;;7.40;99.90;;;;;;5083321;28;20028;-34
2023/01/14 07:41:18;;;;;;;13.68;3.78;;;7.30;99.90;;;;;;5081838;28;20048;-37
2023/01/14 07:43:44;;;;;;;14.43;3.47;;;7.30;99.90;;;;;;5083495;28;20035;-35
2023/01/14 07:46:10;;;;;;;16.55;3.20;;;7.30;99.90;;;;;;5082492;28;20023;-36
2023/01/14 07:48:36;;;;;;;13.55;3.20;;;7.30;99.90;;;;;;5082743;28;20391;-37
2023/01/14 07:51:05;;;;;;;12.52;2.70;;;7.30;99.90;;;;;;5082944;28;20084;-35
2023/01/14 07:53:31;;;;;;;9.55;2.60;;;7.30;99.90;;;;;;5084486;28;20074;-36
2023/01/14 07:56:00;;;;;;;11.40;2.70;;;7.30;99.90;;;;;;5082580;28;20757;-38
2023/01/14 07:58:25;;;;;;;12.82;2.78;;;7.30;99.90;;;;;;5083741;28;20039;-36
2023/01/14 08:00:51;;;;;;;9.15;2.70;;;7.30;99.90;;;;;;5082731;28;20036;-38
2023/01/14 08:03:17;;;;;;;11.85;2.70;;;7.30;99.90;;;;;;5081579;28;20024;-38
2023/01/14 08:05:46;;;;;;;12.95;2.92;;;7.30;99.90;;;;;;5083090;28;20027;-39
2023/01/14 08:08:14;;;;;;;11.55;3.05;;;7.30;99.90;;;;;;5082439;28;20103;-38
2023/01/14 08:10:40;;;;;;;15.73;2.70;;;7.30;99.90;;;;;;5082069;28;20774;-39
2023/01/14 08:13:05;;;;;;;14.50;2.83;;;7.30;99.90;;;;;;5082951;28;20028;-35
2023/01/14 08:15:31;;;;;;;11.13;2.80;;;7.30;99.90;;;;;;5082126;28;20024;-37
2023/01/14 08:17:57;;;;;;;10.90;2.75;;;7.30;99.90;;;;;;5082363;28;20900;-39
2023/01/14 08:20:23;;;;;;;10.52;3.05;;;7.30;99.90;;;;;;5082615;28;20044;-37
2023/01/14 08:22:49;;;;;;;9.95;2.50;;;7.40;99.90;;;;;;5082448;28;20475;-37
2023/01/14 08:25:15;;;;;;;11.57;2.33;;;7.40;99.90;;;;;;5083121;28;20085;-37
2023/01/14 08:27:40;;;;;;;7.32;1.95;;;7.40;99.90;;;;;;5083076;28;20020;-37
2023/01/14 08:30:07;;;;;;;7.07;2.08;;;7.40;99.90;;;;;;5081859;28;20040;-39
2023/01/14 08:32:33;;;;;;;8.88;2.33;;;7.40;99.90;;;;;;5081774;28;20137;-38
2023/01/14 08:34:58;;;;;;;7.25;2.30;;;7.40;99.90;;;;;;5082689;28;20118;-37
2023/01/14 08:37:24;;;;;;;6.38;2.00;;;7.50;99.90;;;;;;5081465;28;20080;-35
2023/01/14 08:39:50;;;;;;;10.30;2.40;;;7.50;99.90;;;;;;5082467;28;20222;-40
2023/01/14 08:42:15;;;;;;;5.97;2.35;;;7.50;99.90;;;;;;5081449;28;20020;-38
2023/01/14 08:44:41;;;;;;;8.65;2.65;;;7.50;99.90;;;;;;5081562;28;20601;-36
2023/01/14 08:47:07;;;;;;;9.85;2.22;;;7.50;99.90;;;;;;5082281;28;20020;-36
2023/01/14 08:49:32;;;;;;;4.93;2.25;;;7.50;99.90;;;;;;5081869;28;20035;-37
2023/01/14 08:51:59;;;;;;;11.32;3.15;;;7.60;99.90;;;;;;5081496;28;20021;-38
2023/01/14 08:54:27;;;;;;;9.57;2.20;;;7.60;99.90;;;;;;5082646;28;20027;-38
2023/01/14 08:56:56;;;;;;;10.95;2.60;;;7.60;99.90;;;;;;5082224;28;20050;-39
2023/01/14 08:59:22;;;;;;;8.63;2.55;;;7.60;99.90;;;;;;5081592;28;20371;-37
2023/01/14 09:01:48;;;;;;;4.68;2.08;;;7.60;99.90;;;;;;5082686;28;20107;-37
2023/01/14 09:04:14;;;;;;;9.13;2.10;;;7.70;99.90;;;;;;5081730;28;20016;-34
2023/01/14 09:17:39;;;;;;;6.22;1.80;;;7.80;99.90;;;;;;5082768;28;20468;-39
2023/01/14 09:20:10;;;;;;;7.80;2.30;;;7.80;99.90;;;;;;5080947;28;20039;-36
2023/01/14 09:22:35;;;;;;;6.05;2.25;;;7.80;99.90;;;;;;5082407;28;20052;-39
2023/01/14 09:25:01;;;;;;;5.55;1.85;;;7.90;99.90;;;;;;5082634;28;20125;-37
2023/01/14 09:27:29;;;;;;;4.85;1.40;;;7.90;99.90;;;;;;5082031;28;20024;-38
2023/01/14 09:29:54;;;;;;;5.05;1.73;;;8.00;99.90;;;;;;5082767;28;20062;-39
2023/01/14 09:32:20;;;;;;;3.45;1.30;;;8.00;99.90;;;;;;5081373;28;20633;-38
2023/01/14 09:34:48;;;;;;;5.07;1.52;;;8.10;99.90;;;;;;5081655;28;20055;-37
2023/01/14 09:37:21;;;;;;;7.72;1.60;;;8.10;99.90;;;;;;5081967;28;20028;-35
2023/01/14 09:39:48;;;;;;;4.78;1.55;;;8.10;99.90;;;;;;5081614;28;20039;-35
2023/01/14 09:42:25;;;;;;;6.47;1.55;;;8.20;99.90;;;;;;5081919;28;20032;-37
2023/01/14 09:44:59;;;;;;;5.13;1.73;;;8.20;99.90;;;;;;5081954;28;20517;-37
2023/01/14 09:47:25;;;;;;;5.72;1.52;;;8.20;99.90;;;;;;5081587;28;20047;-37
2023/01/14 09:49:53;;;;;;;4.72;1.23;;;8.20;99.90;;;;;;5081530;28;20101;-40
2023/01/14 09:52:49;;;;;;;4.85;1.30;;;8.20;99.90;;;;;;5061110;28;20165;-39
2023/01/14 09:55:21;;;;;;;3.33;1.33;;;8.30;99.90;;;;;;5079176;28;20031;-40
2023/01/14 09:57:56;;;;;;;3.28;1.25;;;8.30;99.90;;;;;;5081866;28;20127;-40
2023/01/14 10:00:27;;;;;;;4.75;1.50;;;8.30;99.90;;;;;;5083234;28;20088;-36
2023/01/14 10:03:10;;;;;;;5.05;1.33;;;8.30;99.90;;;;;;5085161;28;20024;-37
2023/01/14 10:05:39;;;;;;;4.97;1.02;;;8.30;99.90;;;;;;5085830;28;20036;-37
2023/01/14 10:08:11;;;;;;;4.40;1.33;;;8.40;99.90;;;;;;5084019;28;20799;-39
2023/01/14 10:10:43;;;;;;;3.53;1.20;;;8.40;99.90;;;;;;5084809;28;20032;-38
2023/01/14 10:13:21;;;;;;;4.97;1.15;;;8.40;99.90;;;;;;5085050;28;20024;-37
2023/01/14 10:15:54;;;;;;;4.97;1.17;;;8.40;99.90;;;;;;5085148;28;20024;-36
2023/01/14 10:18:33;;;;;;;2.00;1.10;;;8.40;99.90;;;;;;5085128;28;20115;-36
2023/01/14 10:21:01;;;;;;;4.03;1.35;;;8.50;99.90;;;;;;5084246;28;20036;-38
2023/01/14 10:23:32;;;;;;;3.50;1.63;;;8.50;99.90;;;;;;5084741;28;20032;-38
2023/01/14 10:25:59;;;;;;;4.25;1.33;;;8.50;99.90;;;;;;5085066;28;20024;-39
2023/01/14 10:28:28;;;;;;;2.47;0.90;;;8.50;99.90;;;;;;5085169;28;20036;-37
2023/01/14 10:30:56;;;;;;;3.70;1.40;;;8.50;99.90;;;;;;5084521;28;20047;-38
2023/01/14 10:33:22;;;;;;;4.38;1.23;;;8.50;99.90;;;;;;5084821;28;20051;-37
2023/01/14 10:36:02;;;;;;;2.78;1.20;;;8.50;99.90;;;;;;5084737;28;20024;-38
2023/01/14 10:38:28;;;;;;;3.28;1.00;;;8.50;99.90;;;;;;5083862;28;20567;-38
2023/01/14 10:41:00;;;;;;;3.70;1.30;;;8.50;99.90;;;;;;5084673;28;20032;-37
2023/01/14 10:43:35;;;;;;;4.55;1.40;;;8.60;99.90;;;;;;5084299;28;20143;-36
2023/01/14 10:46:01;;;;;;;4.78;1.40;;;8.60;99.90;;;;;;5084264;28;20034;-38
2023/01/14 10:48:34;;;;;;;3.65;1.50;;;8.60;99.90;;;;;;5085939;28;20529;-39
2023/01/14 10:51:37;;;;;;;3.60;1.40;;;8.60;99.90;;;;;;5083815;28;20016;-37
2023/01/14 10:54:15;;;;;;;4.57;1.55;;;8.60;99.90;;;;;;5083888;28;20091;-38
2023/01/14 10:56:45;;;;;;;3.70;1.20;;;8.70;99.90;;;;;;5084583;28;20031;-36
2023/01/14 10:59:43;;;;;;;3.00;1.10;;;8.70;99.90;;;;;;5082954;28;20036;-36
2023/01/14 11:02:32;;;;;;;3.35;1.05;;;8.80;99.90;;;;;;5083562;28;20487;-35
2023/01/14 11:04:58;;;;;;;2.83;1.05;;;8.80;99.90;;;;;;5063329;28;20058;-34
2023/01/14 11:07:30;;;;;;;4.80;1.23;;;8.80;99.90;;;;;;5080594;28;20082;-38
2023/01/14 11:09:58;;;;;;;2.60;1.10;;;8.80;99.90;;;;;;5064046;28;20040;-36
2023/01/14 11:12:32;;;;;;;2.45;0.85;;;8.90;99.90;;;;;;5077320;28;20024;-36
2023/01/14 11:14:58;;;;;;;2.80;0.95;;;8.90;99.90;;;;;;5084252;28;20024;-36
2023/01/14 11:17:30;;;;;;;3.60;1.10;;;9.00;99.90;;;;;;5083638;28;20028;-35
2023/01/14 11:20:27;;;;;;;2.25;0.85;;;9.00;99.90;;;;;;5083362;28;20040;-36
2023/01/14 11:23:01;;;;;;;5.65;1.38;;;9.00;99.90;;;;;;5083703;28;20136;-37
2023/01/14 11:25:28;;;;;;;1.80;0.82;;;9.00;99.90;;;;;;5063181;28;20121;-38
2023/01/14 11:27:55;;;;;;;3.85;0.90;;;9.00;99.90;;;;;;5078377;28;20024;-38
2023/01/14 11:30:23;;;;;;;3.28;0.70;;;9.10;99.90;;;;;;5083410;28;20020;-39
2023/01/14 11:32:51;;;;;;;2.65;1.10;;;9.10;99.90;;;;;;5083415;28;20136;-38
2023/01/14 11:35:39;;;;;;;2.78;1.10;;;9.20;99.90;;;;;;5083373;28;20024;-38
2023/01/14 11:38:14;;;;;;;2.30;1.17;;;9.20;99.90;;;;;;5083236;28;20028;-38
2023/01/14 11:43:25;;;;;;;2.92;1.15;;;9.20;99.90;;;;;;5083900;28;20047;-37
2023/01/14 11:46:12;;;;;;;2.55;1.00;;;9.20;99.90;;;;;;5083514;28;20103;-37
2023/01/14 11:48:40;;;;;;;2.92;1.00;;;9.30;99.90;;;;;;5082973;28;20035;-38
2023/01/14 11:51:19;;;;;;;1.17;0.70;;;9.30;99.90;;;;;;5083687;28;20028;-37
2023/01/14 11:53:47;;;;;;;2.55;0.80;;;9.40;99.90;;;;;;5082900;28;20204;-38
2023/01/14 11:56:27;;;;;;;2.17;0.80;;;9.40;99.90;;;;;;5083362;28;20127;-35
2023/01/14 11:58:53;;;;;;;2.88;1.00;;;9.40;99.90;;;;;;5083898;28;20039;-36
2023/01/14 12:01:39;;;;;;;2.40;0.80;;;9.40;99.90;;;;;;5081995;28;20094;-40
2023/01/14 12:04:16;;;;;;;0.80;0.43;;;9.40;99.90;;;;;;5082687;28;20046;-33
2023/01/14 12:07:20;;;;;;;1.35;0.50;;;9.50;99.90;;;;;;5083095;28;20875;-40
2023/01/14 12:10:22;;;;;;;1.50;0.90;;;9.40;99.90;;;;;;5037853;28;20104;-33
2023/01/14 12:19:22;;;;;;;3.00;0.80;;;9.50;99.90;;;;;;5082596;28;20518;-33
2023/01/14 12:21:58;;;;;;;1.00;0.50;;;9.60;99.90;;;;;;5082260;28;20043;-33
2023/01/14 12:24:55;;;;;;;1.35;0.80;;;9.60;99.90;;;;;;5081716;28;20088;-37
2023/01/14 12:27:43;;;;;;;1.70;0.60;;;9.60;99.90;;;;;;5070850;28;20094;-38
2023/01/14 12:30:18;;;;;;;1.33;0.60;;;9.60;99.90;;;;;;5081374;28;20117;-42
2023/01/14 12:33:14;;;;;;;3.55;0.70;;;9.70;99.90;;;;;;5062880;28;20769;-38
2023/01/14 12:35:59;;;;;;;2.80;1.13;;;9.70;99.90;;;;;;5080737;28;20028;-35
2023/01/14 12:46:53;;;;;;;2.20;0.80;;;9.70;99.90;;;;;;5072381;28;20152;-35
2023/01/14 12:49:19;;;;;;;0.85;0.50;;;9.80;99.90;;;;;;5081380;28;20115;-38
2023/01/14 12:51:47;;;;;;;1.65;0.50;;;9.70;99.90;;;;;;5081893;28;20032;-36
2023/01/14 12:54:27;;;;;;;0.98;0.50;;;9.80;99.90;;;;;;5082128;28;20123;-35
2023/01/14 12:56:55;;;;;;;0.70;0.50;;;9.80;99.90;;;;;;5079870;28;20024;-38
2023/01/14 12:59:30;;;;;;;2.03;0.90;;;9.80;99.90;;;;;;5081599;28;20040;-36
2023/01/14 13:01:55;;;;;;;0.98;0.60;;;9.80;99.90;;;;;;5079506;28;20028;-37
2023/01/14 13:04:28;;;;;;;1.00;0.75;;;9.80;99.90;;;;;;5081877;28;20727;-36
2023/01/14 13:07:03;;;;;;;0.55;0.43;;;9.80;99.90;;;;;;5081616;28;20127;-37
2023/01/14 13:09:39;;;;;;;0.50;0.40;;;9.90;99.90;;;;;;5082452;28;20024;-39
2023/01/14 13:12:05;;;;;;;1.58;0.93;;;9.90;99.90;;;;;;5079989;28;20028;-36
2023/01/14 13:14:37;;;;;;;0.30;0.30;;;9.90;99.90;;;;;;5082518;28;20024;-34
2023/01/14 13:17:16;;;;;;;1.20;0.38;;;9.90;99.90;;;;;;5081792;28;20738;-37
2023/01/14 13:19:51;;;;;;;0.90;0.50;;;9.90;99.90;;;;;;5082133;28;20031;-37
2023/01/14 13:22:45;;;;;;;0.85;0.50;;;9.90;99.90;;;;;;5081513;28;20028;-36
2023/01/14 13:25:33;;;;;;;0.57;0.30;;;9.90;99.90;;;;;;5080496;28;20032;-39
2023/01/14 13:28:21;;;;;;;0.93;0.57;;;9.90;99.90;;;;;;5079801;28;20049;-39
2023/01/14 13:30:55;;;;;;;0.75;0.60;;;10.00;99.90;;;;;;5067402;28;20028;-38
2023/01/14 13:33:32;;;;;;;0.52;0.52;;;10.00;99.90;;;;;;5080825;28;20679;-39
2023/01/14 13:36:18;;;;;;;1.33;0.65;;;10.00;99.90;;;;;;5085150;28;20394;-34
2023/01/14 13:38:57;;;;;;;0.70;0.43;;;10.00;99.90;;;;;;5076362;28;20042;-39
2023/01/14 13:41:43;;;;;;;1.00;0.60;;;10.00;99.90;;;;;;5085951;28;20044;-34
2023/01/14 13:44:33;;;;;;;1.23;0.50;;;10.00;99.90;;;;;;5085941;28;20115;-38
2023/01/14 13:47:04;;;;;;;0.63;0.43;;;10.00;99.90;;;;;;5085141;28;20028;-38
2023/01/14 13:49:40;;;;;;;0.63;0.47;;;10.00;99.90;;;;;;5085721;28;20028;-38
2023/01/14 13:52:13;;;;;;;1.52;0.50;;;10.10;99.90;;;;;;5085538;28;20032;-36
2023/01/14 13:54:38;;;;;;;;;;;10.10;99.90;;;;;;5085299;28;20140;-37
2023/01/14 13:57:23;;;;;;;1.25;0.73;;;10.10;99.90;;;;;;5084776;28;19904;-37
2023/01/14 13:59:53;;;;;;;1.52;0.80;;;10.10;99.90;;;;;;5085132;28;20113;-38